Terminal Aerodrome Forecast
Issued by NWS

Home | Current Version | Previous Version | Text Only | Print | Product List | Glossary On
Versions: 1 2 3 4 5 6 7 8 9 10 11 12 13 14 15 16 17 18 19 20 21 22 23 24 25 26 27 28 29 30 31
000
FTUS46 KMTR 242300 RRA
TAFSFO
TAF
KSFO 242351Z 2500/2606 29024G34KT P6SM VCSH SCT020 BKN040
     FM250400 28024G32KT P6SM SCT040
     FM250900 29018G28KT P6SM FEW040
     FM251800 32014KT P6SM FEW030
     FM260300 29012KT P6SM FEW030=

USA.gov is the U.S. government's official web portal to all federal, state and local government web resources and services.